createdAt,value
2018-10-07T00:00:18.607Z,3.7
2018-10-07T00:02:18.425Z,3.4
2018-10-07T00:04:19.261Z,3.6
2018-10-07T00:06:19.392Z,2.4
2018-10-07T00:08:18.216Z,3.3
2018-10-07T00:10:18.503Z,2.8
2018-10-07T00:12:18.306Z,3.5
2018-10-07T00:14:18.123Z,3.7
2018-10-07T00:16:17.620Z,3.2
2018-10-07T00:18:18.493Z,3.2
2018-10-07T00:20:18.299Z,3.8
2018-10-07T00:22:19.096Z,3.5
2018-10-07T00:24:18.895Z,4
2018-10-07T00:26:18.030Z,3.7
2018-10-07T00:28:17.823Z,2.6
2018-10-07T00:30:17.689Z,3.9
2018-10-07T00:32:18.500Z,2.8
2018-10-07T00:34:18.325Z,3.4
2018-10-07T00:36:18.867Z,4.1
2018-10-07T00:38:17.699Z,2.4
2018-10-07T00:40:19.034Z,3.3
2018-10-07T00:42:17.861Z,3.5
2018-10-07T00:44:17.710Z,3.1
2018-10-07T00:46:17.760Z,3.5
2018-10-07T00:48:18.517Z,4
2018-10-07T00:50:18.321Z,2.9
2018-10-07T00:52:17.965Z,3.7
2018-10-07T00:54:17.773Z,3.1
2018-10-07T00:56:18.118Z,3.4
2018-10-07T00:58:18.933Z,3.8
2018-10-07T01:00:17.755Z,3.7
2018-10-07T01:02:18.545Z,3.2
2018-10-07T01:04:18.461Z,3.3
2018-10-07T01:06:17.608Z,3.5
2018-10-07T01:08:19.407Z,3.9
2018-10-07T01:10:17.679Z,3.1
2018-10-07T01:12:18.457Z,3.8
2018-10-07T01:14:19.260Z,3.7
2018-10-07T01:16:18.371Z,2.7
2018-10-07T01:18:19.215Z,4.2
2018-10-07T01:20:19.003Z,3.6
2018-10-07T01:22:18.781Z,3.8
2018-10-07T01:24:17.570Z,3.7
2018-10-07T01:26:18.630Z,4.1
2018-10-07T01:28:18.425Z,4.4
2018-10-07T01:30:18.251Z,3.9
2018-10-07T01:32:18.398Z,3.5
2018-10-07T01:34:19.203Z,4
2018-10-07T01:36:19.308Z,3.8
2018-10-07T01:38:18.130Z,3.4
2018-10-07T01:40:18.444Z,3.9
2018-10-07T01:42:19.233Z,3.6
2018-10-07T01:44:19.038Z,4.5
2018-10-07T01:46:18.671Z,4.5
2018-10-07T01:48:19.464Z,3.8
2018-10-07T01:50:19.374Z,4.5
2018-10-07T01:52:19.155Z,4.9
2018-10-07T01:54:17.927Z,3.6
2018-10-07T01:56:19.381Z,4.4
2018-10-07T01:58:18.150Z,3.7
2018-10-07T02:00:18.935Z,4.2
2018-10-07T02:02:18.705Z,3.8
2018-10-07T02:04:19.472Z,4.1
2018-10-07T02:06:19.211Z,4.1
2018-10-07T02:08:18.021Z,3.9
2018-10-07T02:10:19.330Z,4.7
2018-10-07T02:12:19.142Z,3.9
2018-10-07T02:14:18.961Z,3.9
2018-10-07T02:16:18.527Z,4.6
2018-10-07T02:18:19.400Z,4.4
2018-10-07T02:20:19.283Z,4
2018-10-07T02:22:18.051Z,4.7
2018-10-07T02:24:18.856Z,4.4
2018-10-07T02:26:19.403Z,4.3
2018-10-07T02:28:19.192Z,3.5
2018-10-07T02:30:19.021Z,5.2
2018-10-07T02:32:18.844Z,3.9
2018-10-07T02:34:18.682Z,4.2
2018-10-07T02:36:18.531Z,4.2
2018-10-07T02:38:19.336Z,4.1
2018-10-07T02:40:18.620Z,4.1
2018-10-07T02:42:19.376Z,3.5
2018-10-07T02:44:19.156Z,3.9
2018-10-07T02:46:19.479Z,3.3
2018-10-07T02:48:19.273Z,3.2
2018-10-07T02:50:19.062Z,3.8
2018-10-07T02:52:18.696Z,5.1
2018-10-07T02:54:18.509Z,4.1
2018-10-07T02:56:18.627Z,4.5
2018-10-07T02:58:19.408Z,4.6
2018-10-07T03:00:18.333Z,2.8
2018-10-07T03:02:18.114Z,4.2
2018-10-07T03:04:18.873Z,3.8
2018-10-07T03:06:18.952Z,4.1
2018-10-07T03:08:18.746Z,4.3
2018-10-07T03:10:19.112Z,3.5
2018-10-07T03:12:18.904Z,4
2018-10-07T03:14:18.680Z,4
2018-10-07T03:16:18.779Z,3.7
2018-10-07T03:18:18.652Z,4.6
2018-10-07T03:20:19.617Z,3.6
2018-10-07T03:22:19.423Z,3
2018-10-07T03:24:19.219Z,4.4
2018-10-07T03:26:18.729Z,4.3
2018-10-07T03:28:19.511Z,5.1
2018-10-07T03:30:19.430Z,3.9
2018-10-07T03:32:19.213Z,3.9
2018-10-07T03:34:18.092Z,3.6
2018-10-07T03:36:18.590Z,4
2018-10-07T03:38:19.398Z,4.1
2018-10-07T03:40:18.716Z,4.1
2018-10-07T03:42:19.490Z,3.9
2018-10-07T03:44:19.277Z,4.1
2018-10-07T03:46:18.874Z,3.8
2018-10-07T03:48:18.650Z,4
2018-10-07T03:50:19.451Z,4.2
2018-10-07T03:52:19.257Z,3.7
2018-10-07T03:54:18.073Z,4.5
2018-10-07T03:56:18.697Z,4.1
2018-10-07T03:58:19.482Z,3.8
2018-10-07T04:00:19.343Z,2.7
2018-10-07T04:02:19.171Z,3.1
2018-10-07T04:04:18.939Z,3.9
2018-10-07T04:06:19.266Z,2.7
2018-10-07T04:08:19.045Z,3.6
2018-10-07T04:10:18.354Z,3.6
2018-10-07T04:12:19.147Z,3
2018-10-07T04:14:18.945Z,3.6
2018-10-07T04:16:19.104Z,3.6
2018-10-07T04:18:18.994Z,3.4
2018-10-07T04:20:18.793Z,3.5
2018-10-07T04:22:18.578Z,3.9
2018-10-07T04:24:19.395Z,3.3
2018-10-07T04:26:18.561Z,3.5
2018-10-07T04:28:19.329Z,3.4
2018-10-07T04:30:19.170Z,2.8
2018-10-07T04:32:18.972Z,2.9
2018-10-07T04:34:18.747Z,2.9
2018-10-07T04:36:18.047Z,3.7
2018-10-07T04:38:18.840Z,4.2
2018-10-07T04:40:19.174Z,3.5
2018-10-07T04:42:18.959Z,3.4
2018-10-07T04:44:18.750Z,3.4
2018-10-07T04:46:18.856Z,3.1
2018-10-07T04:48:18.797Z,3.9
2018-10-07T04:50:18.597Z,3.9
2018-10-07T04:52:19.373Z,4
2018-10-07T04:54:19.163Z,4.4
2018-10-07T04:56:19.363Z,3.7
2018-10-07T04:58:18.156Z,3.9
2018-10-07T05:00:18.152Z,4.1
2018-10-07T05:02:19.006Z,4
2018-10-07T05:04:18.793Z,4.5
2018-10-07T05:06:18.936Z,4.3
2018-10-07T05:08:18.726Z,4.6
2018-10-07T05:10:19.029Z,4.5
2018-10-07T05:12:18.896Z,3.8
2018-10-07T05:14:19.012Z,4.4
2018-10-07T05:16:19.121Z,4.2
2018-10-07T05:18:18.977Z,4.5
2018-10-07T05:20:18.771Z,5
2018-10-07T05:22:17.582Z,4.6
2018-10-07T05:24:19.395Z,4.8
2018-10-07T05:26:19.034Z,5.8
2018-10-07T05:28:18.822Z,4.5
2018-10-07T05:30:18.626Z,4.4
2018-10-07T05:32:19.427Z,4.9
2018-10-07T05:34:19.206Z,5
2018-10-07T05:36:18.372Z,4.8
2018-10-07T05:38:19.165Z,5
2018-10-07T05:40:19.474Z,5.8
2018-10-07T05:42:19.296Z,5.2
2018-10-07T05:44:19.148Z,6.6
2018-10-07T05:46:18.949Z,6.5
2018-10-07T05:48:18.739Z,6.3
2018-10-07T05:50:17.612Z,6.9
2018-10-07T05:52:19.381Z,6.6
2018-10-07T05:54:19.185Z,5.6
2018-10-07T05:56:19.361Z,6.8
2018-10-07T05:58:19.139Z,6.7
2018-10-07T06:00:18.935Z,7.8
2018-10-07T06:02:18.734Z,6.1
2018-10-07T06:04:18.776Z,7.7
2018-10-07T06:06:18.900Z,8.3
2018-10-07T06:08:18.679Z,7.2
2018-10-07T06:10:18.965Z,8.4
2018-10-07T06:12:18.781Z,8.7
2018-10-07T06:14:17.558Z,8.5
2018-10-07T06:16:19.385Z,8.8
2018-10-07T06:18:19.254Z,10
2018-10-07T06:20:19.055Z,11.2
2018-10-07T06:22:18.833Z,10.8
2018-10-07T06:24:18.639Z,10
2018-10-07T06:26:19.328Z,9.2
2018-10-07T06:28:19.100Z,9.4
2018-10-07T06:30:17.915Z,10.2
2018-10-07T06:32:18.904Z,11.5
2018-10-07T06:34:18.695Z,11.7
2018-10-07T06:36:18.861Z,11.1
2018-10-07T06:38:18.678Z,11.7
2018-10-07T06:40:18.936Z,12.9
2018-10-07T06:42:18.748Z,13.4
2018-10-07T06:44:18.516Z,12
2018-10-07T06:46:19.120Z,12.2
2018-10-07T06:48:19.320Z,13.4
2018-10-07T06:50:19.100Z,12.5
2018-10-07T06:52:18.880Z,12
2018-10-07T06:54:18.664Z,13.6
2018-10-07T06:56:18.267Z,13.7
2018-10-07T06:58:19.081Z,11.7
2018-10-07T07:00:18.955Z,11.4
2018-10-07T07:02:18.740Z,12
2018-10-07T07:04:18.525Z,12.9
2018-10-07T07:06:19.313Z,8.5
2018-10-07T07:08:19.164Z,9.2
2018-10-07T07:10:19.545Z,6.7
2018-10-07T07:12:19.337Z,6.8
2018-10-07T07:14:19.148Z,6.7
2018-10-07T07:16:18.835Z,5.8
2018-10-07T07:18:18.719Z,4.3
2018-10-07T07:20:19.561Z,3.7
2018-10-07T07:22:19.143Z,3.2
2018-10-07T07:24:17.947Z,2.2
2018-10-07T07:26:19.481Z,2.7
2018-10-07T07:28:19.259Z,2.8
2018-10-07T07:30:19.068Z,2.6
2018-10-07T07:32:18.875Z,2.8
2018-10-07T07:34:18.657Z,2.3
2018-10-07T07:36:18.753Z,1.9
2018-10-07T07:38:18.543Z,2.3
2018-10-07T07:40:18.883Z,1.9
2018-10-07T07:42:18.755Z,2.2
2018-10-07T07:44:18.726Z,2.5
2018-10-07T07:46:18.887Z,2.7
2018-10-07T07:48:18.672Z,2.1
2018-10-07T07:50:19.474Z,2.1
2018-10-07T07:52:19.253Z,1.9
2018-10-07T07:54:19.040Z,1.9
2018-10-07T07:56:19.460Z,1.9
2018-10-07T07:58:19.216Z,2.4
2018-10-07T08:00:19.012Z,2.1
2018-10-07T08:02:18.775Z,1.9
2018-10-07T08:04:18.560Z,1.9
2018-10-07T08:06:19.083Z,3.2
2018-10-07T08:08:18.883Z,1.2
2018-10-07T08:10:19.174Z,1.3
2018-10-07T08:12:18.969Z,1.8
2018-10-07T08:14:18.756Z,1.2
2018-10-07T08:16:19.346Z,1.6
2018-10-07T08:18:19.210Z,0.9
2018-10-07T08:20:18.997Z,0.8
2018-10-07T08:22:18.769Z,0.8
2018-10-07T08:24:18.555Z,0.9
2018-10-07T08:26:18.913Z,0.8
2018-10-07T08:28:18.714Z,0.8
2018-10-07T08:30:19.513Z,0.7
2018-10-07T08:32:19.300Z,0.6
2018-10-07T08:34:19.076Z,0.3
2018-10-07T08:36:19.176Z,0.3
2018-10-07T08:38:18.961Z,0.5
2018-10-07T08:40:19.221Z,0.4
2018-10-07T08:42:18.902Z,0.3
2018-10-07T08:44:18.676Z,0.3
2018-10-07T08:46:19.236Z,0.2
2018-10-07T08:48:19.041Z,0.5
2018-10-07T08:50:18.823Z,0.5
2018-10-07T08:52:19.477Z,1
2018-10-07T08:54:19.232Z,0.6
2018-10-07T08:56:19.371Z,0.4
2018-10-07T08:58:19.227Z,0.5
2018-10-07T09:00:19.006Z,0.5
2018-10-07T09:02:18.778Z,0.5
2018-10-07T09:04:18.567Z,0.3
2018-10-07T09:06:19.451Z,0.5
2018-10-07T09:08:19.219Z,0.5
2018-10-07T09:10:19.469Z,0.3
2018-10-07T09:12:19.301Z,0.2
2018-10-07T09:14:19.083Z,0.3
2018-10-07T09:16:19.282Z,0.2
2018-10-07T09:18:19.163Z,0.1
2018-10-07T09:20:18.928Z,0.3
2018-10-07T09:22:18.727Z,0.2
2018-10-07T09:24:19.515Z,0.4
2018-10-07T09:26:19.285Z,0.2
2018-10-07T09:28:19.069Z,0.5
2018-10-07T09:30:18.981Z,0.3
2018-10-07T09:32:18.771Z,0.2
2018-10-07T09:34:18.672Z,0.2
2018-10-07T09:36:18.932Z,0.3
2018-10-07T09:38:18.716Z,0.1
2018-10-07T09:40:18.973Z,0.2
2018-10-07T09:42:18.776Z,0.1
2018-10-07T09:44:18.567Z,0.2
2018-10-07T09:46:18.720Z,0.2
2018-10-07T09:48:19.496Z,0.2
2018-10-07T09:50:19.444Z,0.1
2018-10-07T09:52:19.255Z,0.1
2018-10-07T09:54:19.229Z,0.1
2018-10-07T09:56:18.829Z,0.1
2018-10-07T09:58:18.622Z,0.1
2018-10-07T10:00:19.395Z,0.1
2018-10-07T10:02:19.195Z,0.2
2018-10-07T10:04:19.049Z,0.2
2018-10-07T10:06:18.791Z,0.1
2018-10-07T10:08:18.602Z,0.3
2018-10-07T10:10:18.977Z,0.4
2018-10-07T10:12:18.749Z,0.3
2018-10-07T10:14:18.611Z,0.1
2018-10-07T10:16:18.893Z,0.2
2018-10-07T10:18:18.766Z,0.3
2018-10-07T10:20:18.587Z,0.3
2018-10-07T10:22:19.386Z,0.4
2018-10-07T10:24:19.198Z,0.1
2018-10-07T10:26:18.771Z,0.2
2018-10-07T10:28:18.558Z,0.6
2018-10-07T10:30:19.398Z,0.1
2018-10-07T10:32:19.008Z,0.6
2018-10-07T10:34:18.771Z,0.3
2018-10-07T10:36:19.312Z,0.3
2018-10-07T10:38:19.097Z,0.3
2018-10-07T10:40:19.375Z,0.2
2018-10-07T10:42:19.182Z,0.2
2018-10-07T10:44:18.964Z,0.3
2018-10-07T10:46:19.101Z,0.2
2018-10-07T10:48:18.885Z,0.3
2018-10-07T10:50:18.662Z,0.4
2018-10-07T10:52:18.808Z,0.2
2018-10-07T10:54:18.586Z,0.2
2018-10-07T10:56:18.699Z,0.1
2018-10-07T10:58:19.456Z,0.3
2018-10-07T11:00:19.247Z,0.1
2018-10-07T11:02:19.018Z,0.2
2018-10-07T11:04:18.832Z,0.2
2018-10-07T11:06:18.971Z,0.5
2018-10-07T11:08:18.759Z,0.4
2018-10-07T11:10:19.059Z,0.1
2018-10-07T11:12:18.835Z,0.1
2018-10-07T11:14:18.604Z,0.1
2018-10-07T11:16:18.738Z,0.1
2018-10-07T11:18:18.606Z,0.1
2018-10-07T11:20:19.391Z,0.1
2018-10-07T11:22:19.106Z,0.1
2018-10-07T11:24:18.909Z,0.1
2018-10-07T11:26:19.585Z,0.4
2018-10-07T11:28:19.382Z,0
2018-10-07T11:30:19.170Z,0.1
2018-10-07T11:32:18.968Z,0.1
2018-10-07T11:34:18.759Z,0.1
2018-10-07T11:36:19.298Z,0.2
2018-10-07T11:38:19.072Z,0.1
2018-10-07T11:40:19.322Z,0.2
2018-10-07T11:42:19.089Z,0.1
2018-10-07T11:44:18.858Z,0.1
2018-10-07T11:46:18.733Z,0.1
2018-10-07T11:48:18.529Z,0.2
2018-10-07T11:50:19.324Z,0.2
2018-10-07T11:52:19.117Z,0.6
2018-10-07T11:54:18.909Z,0.1
2018-10-07T11:56:19.028Z,0.1
2018-10-07T11:58:18.840Z,0.1
2018-10-07T12:00:18.664Z,0
2018-10-07T12:02:19.636Z,0.1
2018-10-07T12:04:18.603Z,0.2
2018-10-07T12:06:19.166Z,0.3
2018-10-07T12:08:18.937Z,0.2
2018-10-07T12:10:19.276Z,0
2018-10-07T12:12:19.210Z,0.1
2018-10-07T12:14:19.010Z,0.4
2018-10-07T12:16:18.743Z,0.2
2018-10-07T12:18:18.682Z,0.1
2018-10-07T12:20:19.474Z,0.1
2018-10-07T12:22:19.245Z,0.1
2018-10-07T12:24:19.024Z,0.2
2018-10-07T12:26:18.570Z,0.1
2018-10-07T12:28:19.359Z,0.3
2018-10-07T12:30:19.127Z,0.1
2018-10-07T12:32:18.920Z,0.2
2018-10-07T12:34:18.718Z,0.1
2018-10-07T12:36:18.883Z,0.1
2018-10-07T12:38:18.685Z,0.4
2018-10-07T12:40:19.018Z,0.1
2018-10-07T12:42:18.799Z,0.2
2018-10-07T12:44:18.579Z,0
2018-10-07T12:46:18.672Z,0.1
2018-10-07T12:48:19.483Z,0
2018-10-07T12:50:19.303Z,0.1
2018-10-07T12:52:19.081Z,0
2018-10-07T12:54:18.883Z,0
2018-10-07T12:56:18.672Z,0.1
2018-10-07T12:58:19.464Z,0.2
2018-10-07T13:00:19.258Z,0.4
2018-10-07T13:02:19.044Z,0.2
2018-10-07T13:04:18.810Z,0.2
2018-10-07T13:06:19.442Z,0.1
2018-10-07T13:08:19.255Z,0.2
2018-10-07T13:10:18.559Z,0.2
2018-10-07T13:12:19.182Z,0.2
2018-10-07T13:14:18.974Z,0.2
2018-10-07T13:16:19.165Z,0.3
2018-10-07T13:18:19.005Z,0.2
2018-10-07T13:20:18.887Z,0.2
2018-10-07T13:22:18.709Z,0.3
2018-10-07T13:24:19.541Z,0.2
2018-10-07T13:26:18.641Z,0.1
2018-10-07T13:28:19.457Z,0.4
2018-10-07T13:30:19.293Z,0.2
2018-10-07T13:32:19.107Z,0.1
2018-10-07T13:34:18.897Z,0.1
2018-10-07T13:36:19.465Z,0.3
2018-10-07T13:38:19.278Z,0.3
2018-10-07T13:40:18.576Z,0.1
2018-10-07T13:42:19.361Z,0.1
2018-10-07T13:44:19.134Z,0.3
2018-10-07T13:46:19.502Z,0
2018-10-07T13:48:19.310Z,0.3
2018-10-07T13:50:19.098Z,0.2
2018-10-07T13:52:18.862Z,0.1
2018-10-07T13:54:18.640Z,0.1
2018-10-07T13:56:19.424Z,0.1
2018-10-07T13:58:19.204Z,0.1
2018-10-07T14:00:18.996Z,0
2018-10-07T14:02:18.774Z,0.2
2018-10-07T14:04:18.571Z,0.2
2018-10-07T14:06:18.652Z,0.1
2018-10-07T14:08:19.434Z,0.1
2018-10-07T14:10:18.902Z,0
2018-10-07T14:12:19.341Z,0.1
2018-10-07T14:14:19.114Z,0.1
2018-10-07T14:16:19.313Z,0.2
2018-10-07T14:18:19.204Z,0.2
2018-10-07T14:20:19.038Z,0.1
2018-10-07T14:22:18.834Z,0.2
2018-10-07T14:24:18.632Z,0.3
2018-10-07T14:26:19.167Z,0.1
2018-10-07T14:28:18.961Z,0.1
2018-10-07T14:30:18.763Z,0.1
2018-10-07T14:32:18.858Z,0.1
2018-10-07T14:34:18.656Z,0.1
2018-10-07T14:36:19.079Z,0.1
2018-10-07T14:38:18.893Z,0
2018-10-07T14:40:19.146Z,0.3
2018-10-07T14:42:18.945Z,0.1
2018-10-07T14:44:18.741Z,0.4
2018-10-07T14:46:19.475Z,0.2
2018-10-07T14:48:18.281Z,0.2
2018-10-07T14:50:19.088Z,0.2
2018-10-07T14:52:18.925Z,0.3
2018-10-07T14:54:18.701Z,0.3
2018-10-07T14:56:19.423Z,0.2
2018-10-07T14:58:19.216Z,0.3
2018-10-07T15:00:19.005Z,0.3
2018-10-07T15:02:18.796Z,0.1
2018-10-07T15:04:18.580Z,0.3
2018-10-07T15:06:18.735Z,0.2
2018-10-07T15:08:18.532Z,0.3
2018-10-07T15:10:18.788Z,0.2
2018-10-07T15:12:18.603Z,0.1
2018-10-07T15:14:18.414Z,0.1
2018-10-07T15:16:19.185Z,0.1
2018-10-07T15:18:19.047Z,0.2
2018-10-07T15:20:18.916Z,0.2
2018-10-07T15:22:18.997Z,0.1
2018-10-07T15:24:18.805Z,0.1
2018-10-07T15:26:18.456Z,0.3
2018-10-07T15:28:19.267Z,0.2
2018-10-07T15:30:18.069Z,0.2
2018-10-07T15:32:18.879Z,0.4
2018-10-07T15:34:18.667Z,0.2
2018-10-07T15:36:19.257Z,0.1
2018-10-07T15:38:19.071Z,0.7
2018-10-07T15:40:19.374Z,0.2
2018-10-07T15:42:19.188Z,0.1
2018-10-07T15:44:18.999Z,0.4
2018-10-07T15:46:18.684Z,0.3
2018-10-07T15:48:19.458Z,0
2018-10-07T15:50:18.294Z,0.2
2018-10-07T15:52:19.112Z,0.2
2018-10-07T15:54:17.933Z,0.2
2018-10-07T15:56:18.491Z,0.2
2018-10-07T15:58:18.275Z,0.1
2018-10-07T16:00:19.073Z,0.1
2018-10-07T16:02:18.875Z,0.1
2018-10-07T16:04:18.654Z,0.3
2018-10-07T16:06:18.783Z,0.1
2018-10-07T16:08:18.567Z,0.1
2018-10-07T16:10:17.856Z,0.2
2018-10-07T16:12:17.851Z,0.3
2018-10-07T16:14:18.645Z,0.3
2018-10-07T16:16:17.755Z,0.2
2018-10-07T16:18:18.696Z,0.3
2018-10-07T16:20:18.535Z,0.4
2018-10-07T16:22:19.308Z,0.5
2018-10-07T16:24:18.169Z,0.3
2018-10-07T16:26:19.385Z,0.4
2018-10-07T16:28:18.328Z,0.2
2018-10-07T16:30:19.147Z,0.7
2018-10-07T16:32:18.968Z,0.3
2018-10-07T16:34:17.870Z,0.4
2018-10-07T16:36:19.458Z,0.5
2018-10-07T16:38:19.278Z,0.7
2018-10-07T16:40:19.533Z,0.7
2018-10-07T16:42:19.089Z,0.7
2018-10-07T16:44:18.908Z,0.7
2018-10-07T16:46:19.326Z,0.9
2018-10-07T16:48:18.139Z,0.8
2018-10-07T16:50:18.953Z,0.8
2018-10-07T16:52:18.746Z,0.8
2018-10-07T16:54:18.518Z,1
2018-10-07T16:56:19.062Z,0.7
2018-10-07T16:58:18.846Z,1.1
2018-10-07T17:00:18.652Z,1
2018-10-07T17:02:19.458Z,1.3
2018-10-07T17:04:19.263Z,0.8
2018-10-07T17:06:19.483Z,1.2
2018-10-07T17:08:19.288Z,1.2
2018-10-07T17:10:18.574Z,0.9
2018-10-07T17:12:19.385Z,1
2018-10-07T17:14:19.192Z,0.7
2018-10-07T17:16:19.116Z,0.9
2018-10-07T17:18:18.976Z,0.8
2018-10-07T17:20:18.803Z,1.1
2018-10-07T17:22:18.567Z,1.1
2018-10-07T17:24:19.375Z,1.3
2018-10-07T17:26:19.481Z,1.3
2018-10-07T17:28:19.278Z,1.1
2018-10-07T17:30:19.073Z,1
2018-10-07T17:32:18.896Z,2
2018-10-07T17:34:18.670Z,2.1
2018-10-07T17:36:19.265Z,2
2018-10-07T17:38:19.036Z,1.8
2018-10-07T17:40:19.329Z,2.2
2018-10-07T17:42:19.121Z,1.4
2018-10-07T17:44:18.921Z,1.2
2018-10-07T17:46:18.862Z,1.7
2018-10-07T17:48:18.734Z,1.5
2018-10-07T17:50:18.671Z,0.7
2018-10-07T17:52:19.465Z,0.9
2018-10-07T17:54:19.273Z,0.8
2018-10-07T17:56:18.708Z,1.1
2018-10-07T17:58:19.502Z,0.3
2018-10-07T18:00:19.294Z,0.5
2018-10-07T18:02:19.096Z,1
2018-10-07T18:04:18.887Z,0.7
2018-10-07T18:06:19.428Z,1.1
2018-10-07T18:08:19.234Z,0.8
2018-10-07T18:10:19.494Z,1
2018-10-07T18:12:19.303Z,1.4
2018-10-07T18:14:19.116Z,1.3
2018-10-07T18:16:18.581Z,1.2
2018-10-07T18:18:19.440Z,1
2018-10-07T18:20:19.241Z,1
2018-10-07T18:22:19.012Z,0.9
2018-10-07T18:24:18.798Z,1.3
2018-10-07T18:26:19.467Z,0.7
2018-10-07T18:28:19.250Z,0.6
2018-10-07T18:30:19.042Z,1.3
2018-10-07T18:32:19.121Z,0.8
2018-10-07T18:34:18.994Z,1.2
2018-10-07T18:36:19.486Z,1.2
2018-10-07T18:38:19.287Z,0.8
2018-10-07T18:40:18.652Z,1.1
2018-10-07T18:42:18.660Z,1.2
2018-10-07T18:44:19.447Z,1.2
2018-10-07T18:46:19.161Z,0.8
2018-10-07T18:48:18.932Z,1.3
2018-10-07T18:50:18.806Z,1.2
2018-10-07T18:52:18.571Z,1.2
2018-10-07T18:54:19.355Z,1.3
2018-10-07T18:56:19.438Z,1.2
2018-10-07T18:58:19.235Z,0.9
2018-10-07T19:00:18.994Z,1.1
2018-10-07T19:02:18.780Z,1.1
2018-10-07T19:04:18.658Z,1.2
2018-10-07T19:06:18.730Z,1
2018-10-07T19:08:19.496Z,1.2
2018-10-07T19:10:18.848Z,1.3
2018-10-07T19:12:18.513Z,1.4
2018-10-07T19:14:19.381Z,1.2
2018-10-07T19:16:18.860Z,1.4
2018-10-07T19:18:18.686Z,1.3
2018-10-07T19:20:19.463Z,0.9
2018-10-07T19:22:19.246Z,1.2
2018-10-07T19:24:19.020Z,1.2
2018-10-07T19:26:19.156Z,1.4
2018-10-07T19:28:18.931Z,1.3
2018-10-07T19:30:18.691Z,0.9
2018-10-07T19:32:19.480Z,1.3
2018-10-07T19:34:19.237Z,1.4
2018-10-07T19:36:19.349Z,1.4
2018-10-07T19:38:19.156Z,1.2
2018-10-07T19:40:19.486Z,1.3
2018-10-07T19:42:19.116Z,1.4
2018-10-07T19:44:18.940Z,1.8
2018-10-07T19:46:18.879Z,1
2018-10-07T19:48:18.663Z,1
2018-10-07T19:50:19.493Z,0.9
2018-10-07T19:52:18.669Z,1
2018-10-07T19:54:18.550Z,1.1
2018-10-07T19:56:18.778Z,1.4
2018-10-07T19:58:18.553Z,0.5
2018-10-07T20:00:19.340Z,0.6
2018-10-07T20:02:18.571Z,0.7
2018-10-07T20:04:19.338Z,1
2018-10-07T20:06:19.430Z,1.1
2018-10-07T20:08:19.186Z,0.6
2018-10-07T20:10:19.437Z,0.8
2018-10-07T20:12:19.217Z,1
2018-10-07T20:14:18.991Z,1.4
2018-10-07T20:16:19.194Z,1.3
2018-10-07T20:18:19.135Z,1.7
2018-10-07T20:20:19.202Z,2.2
2018-10-07T20:22:18.975Z,1.2
2018-10-07T20:24:18.733Z,1.6
2018-10-07T20:26:19.356Z,1
2018-10-07T20:28:19.386Z,1.3
2018-10-07T20:30:19.155Z,0.8
2018-10-07T20:32:18.912Z,1
2018-10-07T20:34:18.710Z,0.9
2018-10-07T20:36:18.806Z,1.4
2018-10-07T20:38:18.576Z,1
2018-10-07T20:40:18.923Z,0.8
2018-10-07T20:42:18.770Z,0.8
2018-10-07T20:44:18.587Z,1.1
2018-10-07T20:46:19.214Z,0.9
2018-10-07T20:48:19.003Z,1
2018-10-07T20:50:18.772Z,1.1
2018-10-07T20:52:18.546Z,1.4
2018-10-07T20:54:19.476Z,1.5
2018-10-07T20:56:18.607Z,1.2
2018-10-07T20:58:19.403Z,1
2018-10-07T21:00:19.166Z,1.4
2018-10-07T21:02:18.944Z,0.8
2018-10-07T21:04:18.731Z,0.7
2018-10-07T21:06:19.200Z,1
2018-10-07T21:08:18.978Z,0.7
2018-10-07T21:10:19.248Z,0.9
2018-10-07T21:12:19.042Z,1.1
2018-10-07T21:14:18.855Z,1
2018-10-07T21:16:19.108Z,0.8
2018-10-07T21:18:18.991Z,0.7
2018-10-07T21:20:18.828Z,0.6
2018-10-07T21:22:18.584Z,0.7
2018-10-07T21:24:19.404Z,1
2018-10-07T21:26:19.116Z,1
2018-10-07T21:28:18.898Z,0.8
2018-10-07T21:30:18.690Z,0.7
2018-10-07T21:32:19.465Z,1.2
2018-10-07T21:34:19.266Z,0.7
2018-10-07T21:36:18.868Z,1.2
2018-10-07T21:38:18.689Z,1.1
2018-10-07T21:40:18.979Z,0.7
2018-10-07T21:42:18.772Z,1
2018-10-07T21:44:18.558Z,0.9
2018-10-07T21:46:19.180Z,0.7
2018-10-07T21:48:18.981Z,0.8
2018-10-07T21:50:18.799Z,1.1
2018-10-07T21:52:18.851Z,0.8
2018-10-07T21:54:18.751Z,1
2018-10-07T21:56:18.953Z,0.9
2018-10-07T21:58:18.760Z,1
2018-10-07T22:00:18.571Z,0.8
2018-10-07T22:02:19.323Z,0.9
2018-10-07T22:04:19.090Z,1
2018-10-07T22:06:18.665Z,1
2018-10-07T22:08:19.467Z,0.8
2018-10-07T22:10:18.722Z,1.1
2018-10-07T22:12:19.509Z,1
2018-10-07T22:14:19.281Z,1.1
2018-10-07T22:16:19.223Z,0.9
2018-10-07T22:18:19.073Z,0.9
2018-10-07T22:20:18.862Z,0.9
2018-10-07T22:22:18.641Z,1
2018-10-07T22:24:19.404Z,0.8
2018-10-07T22:26:19.470Z,0.8
2018-10-07T22:28:19.231Z,1.2
2018-10-07T22:30:18.995Z,1.3
2018-10-07T22:32:18.759Z,0.8
2018-10-07T22:34:18.526Z,1.2
2018-10-07T22:36:19.259Z,0.8
2018-10-07T22:38:19.031Z,0.8
2018-10-07T22:40:19.285Z,1.4
2018-10-07T22:42:19.051Z,0.8
2018-10-07T22:44:18.846Z,1.1
2018-10-07T22:46:19.289Z,1.2
2018-10-07T22:48:19.063Z,1.2
2018-10-07T22:50:18.863Z,1
2018-10-07T22:52:18.635Z,1.3
2018-10-07T22:54:19.417Z,1.4
2018-10-07T22:56:18.704Z,1.4
2018-10-07T22:58:19.464Z,1.2
2018-10-07T23:00:19.363Z,1.4
2018-10-07T23:02:19.198Z,1.8
2018-10-07T23:04:18.983Z,0.9
2018-10-07T23:06:19.165Z,1
2018-10-07T23:08:18.924Z,1.6
2018-10-07T23:10:19.173Z,1.6
2018-10-07T23:12:18.935Z,1.5
2018-10-07T23:14:18.691Z,1.3
2018-10-07T23:16:19.202Z,1.1
2018-10-07T23:18:19.081Z,1.8
2018-10-07T23:20:18.871Z,1.5
2018-10-07T23:22:19.487Z,1.5
2018-10-07T23:24:19.269Z,1.6
2018-10-07T23:26:18.914Z,1.2
2018-10-07T23:28:18.745Z,1.5
2018-10-07T23:30:18.513Z,1.1
2018-10-07T23:32:19.274Z,1.6
2018-10-07T23:34:19.040Z,1.4
2018-10-07T23:36:19.118Z,1.4
2018-10-07T23:38:18.869Z,2.3
2018-10-07T23:40:19.127Z,1.3
2018-10-07T23:42:18.893Z,2
2018-10-07T23:44:18.684Z,1.6
2018-10-07T23:46:19.224Z,1.8
2018-10-07T23:48:18.979Z,1.3
2018-10-07T23:50:18.778Z,1.3
2018-10-07T23:52:18.563Z,2.2
2018-10-07T23:54:19.345Z,1.1
2018-10-07T23:56:18.928Z,1.9
2018-10-07T23:58:18.698Z,2
